Terminal Aerodrome Forecast
Issued by NWS Omaha/Valley, NE

Home | Current Version | Previous Version | Text Only | Print | Product List | Glossary On
Versions: 1 2 3 4 5 6 7 8 9 10 11 12 13 14 15 16 17 18 19 20 21 22 23 24 25 26 27 28 29 30
000
FTUS43 KOAX 221720
TAFOFK
TAF
KOFK 221720Z 2218/2318 19011KT P6SM SCT250
     FM230000 16007KT P6SM BKN150 PROB30 2309/2312 -SHRA SCT040
      BKN070
     FM231200 15008KT P6SM -SHRA SCT015 OVC050=

USA.gov is the U.S. government's official web portal to all federal, state and local government web resources and services.